General Aviation Weather

Text Reports

Enter one or more of the following location identifiers separated by a space:

Zip Code, Four-Character ICAO or Three-Character IATA airport codes.

METAR - Aviation Routine Weather Report
KCOT - Cotulla, Texas
Updated at 6:53 PM GMT on March 28, 2015 (1:53 PM CDT):
METAR KCOT 281853Z AUTO 16011KT 10SM CLR 28/02 A3010 RMK AO2 SLP187 T02830022
TAF - Terminal Area Forecast
KCOT - Cotulla, Texas
Updated at 6:53 PM GMT on March 28, 2015 (1:53 PM CDT):
No TAF is currently available for this location.
Decoded:
No decoded TAF is available.
PIREP - Pilot Weather Report
KCOT - Cotulla, Texas
Updated at 6:53 PM GMT on March 28, 2015 (1:53 PM CDT):
No PIREP is currently available for this location.
AIRMET - Airmens Meteorological Information
KCOT - Cotulla, Texas
Updated at 6:53 PM GMT on March 28, 2015 (1:53 PM CDT):
No AIRMET is currently available for this location.
SIGMET - Significant Meteorological Information
KCOT - Cotulla, Texas
Updated at 6:53 PM GMT on March 28, 2015 (1:53 PM CDT):
No SIGMET is currently available for this location.
NOTAM - Notice to Airmen
KCOT - Cotulla, Texas
Updated at 6:53 PM GMT on March 28, 2015 (1:53 PM CDT):
No NOTAM is currently available for this location.
Forecast Area
KCOT - Cotulla, Texas
Updated at 6:53 PM GMT on March 28, 2015 (1:53 PM CDT):
No NOTAM is currently available for this location.
Aviation Weather Maps